Flight Track Log - Related Links

Times and Time Zones

All times are in EDT time to prevent confusion due to time zone crossing. See the EJM989 flight status page for this flight to view local times or setup timezone preferences in your user account.

Time Position Orientation Groundspeed Altitude Reporting Facility
EDT Latitude Longitude Course Direction KTS MPH feet Rate Location/Type
Sun 07:10:25 PM 52.4000 -52.5833 237° Southwest 480 552 43,000  Level Gander Center
Sun 07:11:25 PM 52.3333 -52.7500 237° Southwest 460 529 43,000  Level Gander Center
Sun 07:12:25 PM 52.2667 -52.9667 243° Southwest 480 552 43,000  Level Gander Center
Sun 07:13:25 PM 52.2167 -53.1333 244° Southwest 480 552 43,000  Level Gander Center
Sun 07:14:25 PM 52.1500 -53.3500 243° Southwest 470 541 43,000  Level Gander Center
Sun 07:15:25 PM 52.0667 -53.5167 231° Southwest 470 541 43,000  Level Gander Center
Sun 07:16:25 PM 52.0167 -53.7000 246° West 470 541 43,000  Level Gander Center
Sun 07:17:25 PM 51.9500 -53.8667 237° Southwest 480 552 43,000  Level Gander Center
Sun 07:18:25 PM 51.8667 -54.0667 236° Southwest 470 541 43,000  Level Gander Center
Sun 07:19:25 PM 51.8000 -54.2500 240° Southwest 470 541 43,000  Level Gander Center
Sun 07:20:25 PM 51.7500 -54.4500 248° West 470 541 43,000  Level Gander Center
Sun 07:21:25 PM 51.6667 -54.6167 231° Southwest 470 541 43,000  Level Gander Center
Sun 07:22:25 PM 51.6167 -54.7833 244° Southwest 470 541 43,000  Level Gander Center
Sun 07:23:25 PM 51.5333 -54.9833 236° Southwest 470 541 43,000  Level Gander Center
Sun 07:24:25 PM 51.4667 -55.1500 237° Southwest 480 552 43,000  Level Gander Center
Sun 07:25:25 PM 51.4000 -55.3333 240° Southwest 480 552 43,000  Level Gander Center
Sun 07:26:25 PM 51.3333 -55.5167 240° Southwest 470 541 43,000  Level Gander Center
Sun 07:27:25 PM 51.2500 -55.7000 234° Southwest 460 529 43,000  Level Gander Center
Sun 07:28:25 PM 51.1833 -55.8833 240° Southwest 470 541 43,000  Level Gander Center
Sun 07:29:25 PM 51.1167 -56.0333 235° Southwest 460 529 43,000  Level Gander Center
Sun 07:30:25 PM 51.0500 -56.2333 242° Southwest 470 541 43,000  Level Gander Center
Sun 07:31:25 PM 50.9833 -56.4000 238° Southwest 470 541 43,000  Level Gander Center
Sun 07:32:25 PM 50.9167 -56.5833 240° Southwest 470 541 43,000  Level Gander Center
Sun 07:33:25 PM 50.8500 -56.7500 238° Southwest 470 541 43,000  Level Gander Center
Sun 07:34:25 PM 50.7667 -56.9167 232° Southwest 470 541 43,000  Level Gander Center
Sun 07:35:25 PM 50.7000 -57.0833 238° Southwest 470 541 43,000  Level Gander Center
Sun 07:36:25 PM 50.6333 -57.2667 240° Southwest 460 529 43,000  Level Gander Center
Sun 07:37:25 PM 50.5500 -57.4333 232° Southwest 470 541 43,000  Level Gander Center
Sun 07:38:25 PM 50.4833 -57.6000 238° Southwest 460 529 43,000  Level Gander Center
Sun 07:39:25 PM 50.4167 -57.7667 238° Southwest 470 541 43,000  Level Gander Center
Sun 07:40:25 PM 50.3333 -57.9500 235° Southwest 460 529 43,000  Level Gander Center
Sun 07:41:25 PM 50.2833 -58.1167 245° Southwest 460 529 43,000  Level Gander Center
Sun 07:42:25 PM 50.2000 -58.2833 232° Southwest 460 529 43,000  Level Gander Center
Sun 07:43:11 PM 50.1333 -58.3833 224° Southwest 460 529 43,000  Level Moncton Center
Sun 07:44:11 PM 50.0667 -58.5833 243° Southwest 460 529 43,000  Level Moncton Center
Sun 07:45:11 PM 50.0000 -58.7167 232° Southwest 460 529 43,000  Level Moncton Center
Sun 07:46:11 PM 49.9333 -58.9000 241° Southwest 460 529 43,000  Level Moncton Center
Sun 07:47:11 PM 49.8500 -59.0500 229° Southwest 450 518 43,000  Level Moncton Center
Sun 07:48:11 PM 49.7833 -59.2333 241° Southwest 460 529 43,000  Level Moncton Center
Sun 07:49:11 PM 49.7167 -59.3667 232° Southwest 460 529 43,000  Level Moncton Center
Sun 07:50:11 PM 49.6333 -59.5333 232° Southwest 460 529 43,000  Level Moncton Center
Sun 07:51:11 PM 49.5667 -59.7000 238° Southwest 460 529 43,000  Level Moncton Center
Sun 07:52:11 PM 49.5000 -59.8500 236° Southwest 460 529 43,000  Level Moncton Center
Sun 07:53:11 PM 49.4333 -60.0167 238° Southwest 460 529 43,000  Level Moncton Center
Sun 07:54:11 PM 49.3500 -60.1833 233° Southwest 460 529 43,000  Level Moncton Center
Sun 07:55:11 PM 49.2667 -60.3500 233° Southwest 460 529 43,000  Level Moncton Center
Sun 07:56:11 PM 49.1833 -60.5000 230° Southwest 460 529 43,000  Level Moncton Center
Sun 07:57:11 PM 49.1167 -60.6833 241° Southwest 460 529 43,000  Level Moncton Center
Sun 07:58:11 PM 49.0500 -60.8167 233° Southwest 460 529 43,000  Level Moncton Center
Sun 07:59:11 PM 48.9667 -61.0000 235° Southwest 460 529 43,000  Level Moncton Center
Sun 08:00:11 PM 48.9000 -61.1333 233° Southwest 460 529 43,000  Level Moncton Center
Sun 08:01:11 PM 48.8333 -61.3000 239° Southwest 450 518 43,000  Level Moncton Center
Sun 08:02:11 PM 48.7500 -61.4500 230° Southwest 450 518 43,000  Level Moncton Center
Sun 08:03:11 PM 48.6667 -61.6000 230° Southwest 450 518 43,000  Level Moncton Center
Sun 08:04:11 PM 48.5833 -61.7667 233° Southwest 450 518 43,000  Level Moncton Center
Sun 08:05:11 PM 48.5333 -61.9167 243° Southwest 450 518 43,000  Level Moncton Center
Sun 08:06:11 PM 48.4500 -62.0667 230° Southwest 450 518 43,000  Level Moncton Center
Sun 08:07:11 PM 48.3667 -62.2333 233° Southwest 440 506 43,000  Level Moncton Center
Sun 08:08:11 PM 48.3000 -62.3500 229° Southwest 450 518 43,000  Level Moncton Center
Sun 08:09:11 PM 48.2167 -62.5167 233° Southwest 450 518 43,000  Level Moncton Center
Sun 08:10:11 PM 48.1500 -62.6667 236° Southwest 450 518 43,000  Level Moncton Center
Sun 08:11:11 PM 48.0667 -62.8167 230° Southwest 450 518 43,000  Level Moncton Center
Sun 08:12:11 PM 48.0000 -62.9667 236° Southwest 450 518 43,000  Level Moncton Center
Sun 08:13:11 PM 47.9333 -63.1167 236° Southwest 450 518 43,000  Level Moncton Center
Sun 08:14:11 PM 47.8500 -63.2667 230° Southwest 450 518 43,000  Level Moncton Center
Sun 08:15:11 PM 47.7667 -63.4000 227° Southwest 440 506 43,000  Level Moncton Center
Sun 08:16:11 PM 47.7000 -63.5500 237° Southwest 440 506 43,000  Level Moncton Center
Sun 08:17:11 PM 47.6167 -63.7000 231° Southwest 440 506 43,000  Level Moncton Center
Sun 08:18:11 PM 47.5500 -63.8333 234° Southwest 450 518 43,000  Level Moncton Center
Sun 08:19:11 PM 47.4667 -63.9833 231° Southwest 450 518 43,000  Level Moncton Center
Sun 08:20:11 PM 47.3833 -64.1333 231° Southwest 440 506 43,000  Level Moncton Center
Sun 08:21:11 PM 47.3167 -64.2667 234° Southwest 440 506 43,000  Level Moncton Center
Sun 08:22:11 PM 47.2333 -64.4167 231° Southwest 440 506 43,000  Level Moncton Center
Sun 08:23:11 PM 47.1500 -64.5667 231° Southwest 440 506 43,000  Level Moncton Center
Sun 08:24:11 PM 47.0833 -64.7000 234° Southwest 440 506 43,000  Level Moncton Center
Sun 08:25:11 PM 47.0000 -64.8333 228° Southwest 450 518 43,000  Level Moncton Center
Sun 08:26:11 PM 46.9333 -64.9833 237° Southwest 450 518 43,000  Level Moncton Center
Sun 08:27:11 PM 46.8500 -65.1333 231° Southwest 440 506 43,000  Level Moncton Center
Sun 08:28:11 PM 46.7667 -65.2833 231° Southwest 440 506 43,000  Level Moncton Center
Sun 08:29:11 PM 46.6833 -65.4000 224° Southwest 440 506 43,000  Level Moncton Center
Sun 08:30:11 PM 46.6000 -65.5500 231° Southwest 440 506 43,000  Level Moncton Center
Sun 08:31:11 PM 46.5333 -65.6667 230° Southwest 430 495 43,000  Level Moncton Center
Sun 08:32:11 PM 46.4500 -65.8000 228° Southwest 430 495 43,000  Level Moncton Center
Sun 08:33:11 PM 46.3833 -65.9500 237° Southwest 440 506 43,000  Level Moncton Center
Sun 08:34:11 PM 46.3000 -66.1000 231° Southwest 430 495 43,000  Level Moncton Center
Sun 08:35:11 PM 46.2333 -66.2167 230° Southwest 430 495 43,000  Level Moncton Center
Sun 08:36:11 PM 46.1500 -66.3500 228° Southwest 430 495 43,000  Level Moncton Center
Sun 08:37:11 PM 46.0667 -66.4667 224° Southwest 430 495 43,000  Level Moncton Center
Sun 08:38:11 PM 46.0000 -66.6167 237° Southwest 430 495 43,000  Level Moncton Center
Sun 08:39:11 PM 45.9167 -66.7333 224° Southwest 430 495 43,000  Level Moncton Center
Sun 08:40:11 PM 45.8500 -66.8667 234° Southwest 420 483 43,000  Level Moncton Center
Sun 08:41:11 PM 45.7833 -66.9833 231° Southwest 420 483 43,000  Level Moncton Center
Sun 08:42:11 PM 45.7000 -67.1333 232° Southwest 410 472 43,000  Level Moncton Center
Sun 08:43:11 PM 45.6167 -67.2500 224° Southwest 410 472 43,000  Level Moncton Center
Sun 08:44:11 PM 45.5500 -67.3667 231° Southwest 410 472 43,000  Level Moncton Center
Sun 08:45:11 PM 45.4667 -67.5000 228° Southwest 420 483 43,000  Level Moncton Center
Sun 08:46:11 PM 45.3833 -67.6167 225° Southwest 420 483 43,000 -500 Level Moncton Center
Sun 08:47:11 PM 45.3000 -67.7333 225° Southwest 420 483 42,000 -1,250 Descending Moncton Center
Sun 08:48:11 PM 45.2167 -67.8667 228° Southwest 410 472 40,500 -1,333 Descending Moncton Center
Sun 08:48:41 PM 45.2136 -67.8931 261° West 419 482 40,000 -1,253 Descending Boston Center
Sun 08:49:42 PM 45.1347 -68.0053 225° Southwest 414 476 38,600 -1,388 Descending Boston Center
Sun 08:50:42 PM 45.0558 -68.1231 227° Southwest 414 476 37,200 -1,289 Descending Boston Center
Sun 08:51:43 PM 44.9767 -68.2406 226° Southwest 419 482 36,000 -605 Descending Boston Center
Sun 08:52:41 PM 44.8933 -68.3519 223° Southwest 419 482 36,000  Level Boston Center
Sun 08:53:42 PM 44.8119 -68.4689 226° Southwest 419 482 36,000  Level Boston Center
Sun 08:54:40 PM 44.7325 -68.5883 227° Southwest 419 482 36,000  Level Boston Center
Sun 08:55:41 PM 44.6486 -68.7019 224° Southwest 424 488 36,000  Level Boston Center
Sun 08:56:41 PM 44.5692 -68.8178 226° Southwest 424 488 36,000  Level Boston Center
Sun 08:57:41 PM 44.4869 -68.9306 224° Southwest 424 488 36,000 -303 Level Boston Center
Sun 08:58:40 PM 44.3972 -69.0578 225° Southwest 424 488 35,400 -1,210 Descending Boston Center
Sun 08:59:40 PM 44.3108 -69.1731 224° Southwest 424 488 33,600 -1,869 Descending Boston Center
Sun 09:00:42 PM 44.2267 -69.2936 226° Southwest 424 488 31,600 -1,983 Descending Boston Center
Sun 09:01:41 PM 44.1381 -69.4111 224° Southwest 424 488 29,600 -1,983 Descending Boston Center
Sun 09:02:43 PM 44.0536 -69.5339 226° Southwest 430 495 27,600 -2,017 Descending Boston Center
Sun 09:03:40 PM 43.9650 -69.6536 224° Southwest 441 507 25,600 -2,034 Descending Boston Center
Sun 09:04:41 PM 43.8761 -69.7758 225° Southwest 446 513 23,600 -2,000 Descending Boston Center
Sun 09:05:43 PM 43.7911 -69.8889 224° Southwest 439 505 21,500 -1,866 Descending Boston Center
Sun 09:06:40 PM 43.7222 -69.9808 224° Southwest 434 499 19,900 -1,897 Descending Boston Center
Sun 09:07:40 PM 43.6253 -70.1167 225° Southwest 421 484 17,800 -1,983 Descending Boston Center
Sun 09:08:41 PM 43.5500 -70.2142 223° Southwest 421 484 15,900 -2,000 Descending Boston Center
Sun 09:09:43 PM 43.4647 -70.3347 226° Southwest 413 475 13,700 -2,017 Descending Boston Center
Sun 09:10:40 PM 43.3956 -70.4228 223° Southwest 390 449 11,900 -1,333 Descending Boston Center
Sun 09:11:40 PM 43.3158 -70.5167 221° Southwest 379 436 11,100 -496 Descending Boston Center
Sun 09:12:41 PM 43.2256 -70.6108 217° Southwest 374 430 10,900 -545 Descending Boston Center
Sun 09:13:41 PM 43.1558 -70.6811 216° Southwest 361 415 10,000 -1,163 Descending Boston Center
Sun 09:14:19 PM 43.1000 -70.7333 214° Southwest 300 345 9,000 -1,565 Descending KA90
Sun 09:15:13 PM 43.0500 -70.7833 216° Southwest 283 326 7,600 -1,737 Descending KA90
Sun 09:16:13 PM 42.9833 -70.8500 216° Southwest 278 320 5,700 -1,400 Descending KA90
Sun 09:17:13 PM 42.9167 -70.9000 209° Southwest 268 308 4,800 -800 Descending KA90
Sun 09:18:13 PM 42.8667 -70.9500 216° Southwest 263 303 4,100 -850 Descending KA90
Sun 09:19:13 PM 42.8000 -71.0000 209° Southwest 259 298 3,100 -667 Descending KA90
Sun 09:19:43 PM 42.7731 -71.0286 218° Southwest 272 313 3,100 69 Level Boston Center
Sun 09:20:40 PM 42.7133 -71.0781 211° Southwest 272 313 3,200 -51 Climbing Boston Center
Sun 09:21:40 PM 42.6575 -71.1386 219° Southwest 267 307 3,000 -244 Descending Boston Center
Sun 09:22:43 PM 42.6100 -71.1764 210° Southwest 228 262 2,700 -364 Descending Boston Center
Sun 09:23:19 PM 42.5833 -71.2000 213° Southwest 184 212 2,400 -188 Descending KA90
Sun 09:24:19 PM 42.5667 -71.2500 246° West 157 181 2,400 -50 Level KA90
Sun 09:25:19 PM 42.5500 -71.3000 246° West 161 185 2,300 -150 Descending KA90
Sun 09:26:19 PM 42.5333 -71.3667 251° West 167 192 2,100 -400 Descending KA90
Sun 09:27:19 PM 42.5000 -71.3667 180° South 141 162 1,500 -750 Descending KA90
Sun 09:28:19 PM 42.4833 -71.3333 124° Southeast 138 159 600 -900 Descending KA90
Sun 09:30:00 PM 42.4667 -71.2833 209° Southwest  Level FlightAware Approximate
Sun 09:37:00 PM 42.4699 -71.2890 209° Southwest  Level Estimated
Sun 09:38:00 PM 42.4667 -71.2833 209° Southwest  Level FlightAware Approximate
Sun 09:39:00 PM 42.4699 -71.2890 209° Southwest  Level Estimated
Sun 09:40:00 PM 42.4667 -71.2833 209° Southwest  Level FlightAware Approximate
Sun 09:41:00 PM 42.4699 -71.2890 209° Southwest  Level Estimated

Login

Don't have an account? Register now (free) for customized features, flight alerts, and more!